• Join FlightAware (Why Join?)
  • Login
  • US Flag 
12:22AM EDT


 

Airport Tracker/Info


-or-


 

Live Flight TrackerFlight Track Log ✈ N826D ✈ 26-Mar-2014 ✈ KPHF - KAPF

Flight Track Log - Related Links

Times and Time Zones

All times are in EDT time to prevent confusion due to time zone crossing. See the N826D flight status page for this flight to view local times or setup timezone preferences in your user account.

Time Position Orientation Groundspeed Altitude Reporting Facility
EDT Latitude Longitude Course Direction KTS MPH feet Rate Location/Type
09:04AM 37.1247 -76.5061 241° Southwest 114 131 600  Level Washington Center
09:05AM 37.1056 -76.5503 241° Southwest 117 135 1,900 1,020 Climbing Washington Center
09:06AM 37.1094 -76.5944 276° West 103 119 3,000 900 Climbing Washington Center
09:07AM 37.1092 -76.6311 269° West 109 125 3,900 480 Climbing Washington Center
09:08AM 37.1067 -76.6728 266° West 131 151 4,000 60 Climbing Washington Center
09:09AM 37.1086 -76.7014 275° West 143 165 4,000 -120 Level Washington Center
09:10AM 37.0975 -76.7506 254° West 148 170 3,900 -60 Descending Washington Center
09:11AM 37.0533 -76.7864 213° Southwest 161 185 3,900  Level Washington Center
09:12AM 37.0053 -76.8169 207° Southwest 175 201 3,900  Level Washington Center
09:13AM 36.9653 -76.8422 207° Southwest 191 220 4,000  Climbing Washington Center
09:14AM 36.9106 -76.8828 211° Southwest 201 231 4,000  Level Washington Center
09:15AM 36.8622 -76.9133 207° Southwest 201 231 4,100  Climbing Washington Center
09:16AM 36.8181 -76.9489 213° Southwest 201 231 4,100  Level Washington Center
09:17AM 36.7719 -76.9792 208° Southwest 201 231 4,100  Level Washington Center
09:18AM 36.7236 -77.0094 207° Southwest 196 226 4,200  Climbing Washington Center
09:19AM 36.6814 -77.0450 214° Southwest 196 226 4,100 -60 Descending Washington Center
09:20AM 36.6414 -77.0831 217° Southwest 191 220 4,100  Level Washington Center
09:21AM 36.5989 -77.1236 217° Southwest 191 220 4,200  Climbing Washington Center
09:22AM 36.5567 -77.1642 218° Southwest 191 220 4,100 -60 Descending Washington Center
09:23AM 36.5167 -77.1994 215° Southwest 197 227 4,100  Level Washington Center
09:24AM 36.4764 -77.2400 219° Southwest 197 227 4,100  Level Washington Center
09:25AM 36.4342 -77.2803 218° Southwest 197 227 4,100  Level Washington Center
09:26AM 36.3897 -77.3181 214° Southwest 197 227 4,100  Level Washington Center
09:27AM 36.3456 -77.3533 213° Southwest 197 227 4,100  Level Washington Center
09:28AM 36.3033 -77.3858 212° Southwest 197 227 4,100  Level Washington Center
09:29AM 36.2589 -77.4233 214° Southwest 197 227 4,100  Level Washington Center
09:30AM 36.2167 -77.4611 216° Southwest 197 227 4,100 -60 Level Washington Center
09:31AM 36.1764 -77.4911 211° Southwest 197 227 4,000  Descending Washington Center
09:32AM 36.1364 -77.5286 217° Southwest 192 221 4,100  Climbing Washington Center
09:33AM 36.0897 -77.5608 209° Southwest 192 221 4,100  Level Washington Center
09:34AM 36.0497 -77.5958 215° Southwest 192 221 4,100  Level Washington Center
09:35AM 36.0031 -77.6331 213° Southwest 192 221 4,100  Level Washington Center
09:36AM 35.9586 -77.6681 213° Southwest 192 221 4,100  Level Washington Center
09:37AM 35.9164 -77.7028 214° Southwest 192 221 4,100  Level Washington Center
09:38AM 35.8719 -77.7375 212° Southwest 192 221 4,100  Level Washington Center
09:39AM 35.8381 -77.7647 213° Southwest 187 215 4,100  Level Washington Center
09:39AM 35.8294 -77.7722 215° Southwest 192 221 4,100  Level Washington Center
09:40AM 35.7914 -77.8019 212° Southwest 186 214 4,100  Level Washington Center
09:40AM 35.7850 -77.8069 212° Southwest 192 221 4,100  Level Washington Center
09:41AM 35.7492 -77.8364 214° Southwest 185 213 4,100  Level Washington Center
09:41AM 35.7428 -77.8442 225° Southwest 192 221 4,100  Level Washington Center
09:42AM 35.7044 -77.8711 210° Southwest 186 214 4,100  Level Washington Center
09:42AM 35.6981 -77.8786 224° Southwest 192 221 4,100  Level Washington Center
09:43AM 35.6600 -77.9081 212° Southwest 186 214 4,100  Level Washington Center
09:43AM 35.6536 -77.9131 212° Southwest 192 221 4,100  Level Washington Center
09:44AM 35.6175 -77.9428 214° Southwest 187 215 4,100  Level Washington Center
09:44AM 35.6114 -77.9478 214° Southwest 192 221 4,100  Level Washington Center
09:45AM 35.5689 -77.9822 213° Southwest 190 219 4,100  Level Washington Center
09:45AM 35.5667 -77.9819 174° South 192 221 4,100  Level Washington Center
09:46AM 35.5222 -78.0217 216° Southwest 190 219 4,100  Level Washington Center
09:46AM 35.5222 -78.0189 90° East 192 221 4,100  Level Washington Center
09:47AM 35.4797 -78.0533 213° Southwest 192 221 4,100  Level Washington Center
09:48AM 35.4353 -78.0903 214° Southwest 186 214 4,100  Level Washington Center
09:48AM 35.4353 -78.0853 90° East 192 221 4,100  Level Washington Center
09:49AM 35.3928 -78.1222 215° Southwest 189 217 4,100  Level Washington Center
09:50AM 35.3461 -78.1589 213° Southwest 188 216 4,100  Level Washington Center
09:51AM 35.3036 -78.1931 213° Southwest 188 216 4,100  Level Washington Center
09:52AM 35.2611 -78.2300 215° Southwest 188 216 4,100  Level Washington Center
09:53AM 35.2122 -78.2664 211° Southwest 188 216 4,100  Level Washington Center
09:54AM 35.1697 -78.3006 213° Southwest 189 217 4,100  Level Washington Center
09:55AM 35.1231 -78.3344 211° Southwest 193 222 4,100  Level Washington Center
09:57AM 35.0402 -78.3786 204° Southwest  Level FlightAware Approximate
10:04AM 34.7116 -78.6300 213° Southwest  Level FlightAware Approximate
10:05AM 34.6652 -78.6668 213° Southwest  Level FlightAware Approximate
10:06AM 34.6189 -78.7035 213° Southwest  Level FlightAware Approximate
10:07AM 34.5725 -78.7402 213° Southwest  Level FlightAware Approximate
10:08AM 34.5262 -78.7768 213° Southwest  Level FlightAware Approximate
10:09AM 34.4798 -78.8134 213° Southwest  Level FlightAware Approximate
10:10AM 34.4334 -78.8500 213° Southwest  Level FlightAware Approximate
10:11AM 34.3867 -78.8859 212° Southwest  Level FlightAware Approximate
10:12AM 34.3400 -78.9218 212° Southwest  Level FlightAware Approximate
10:13AM 34.2932 -78.9576 212° Southwest  Level FlightAware Approximate
10:14AM 34.2465 -78.9934 212° Southwest  Level FlightAware Approximate
10:15AM 34.1997 -79.0292 212° Southwest  Level FlightAware Approximate
10:16AM 34.1530 -79.0649 212° Southwest  Level FlightAware Approximate
10:17AM 34.1062 -79.1006 212° Southwest  Level FlightAware Approximate
10:18AM 34.0594 -79.1362 212° Southwest  Level FlightAware Approximate
10:19AM 34.0126 -79.1718 212° Southwest  Level FlightAware Approximate
10:20AM 33.9658 -79.2074 212° Southwest  Level FlightAware Approximate
10:21AM 33.9190 -79.2429 212° Southwest  Level FlightAware Approximate
10:22AM 33.8722 -79.2784 212° Southwest  Level FlightAware Approximate
10:23AM 33.8253 -79.3138 212° Southwest  Level FlightAware Approximate
10:24AM 33.7785 -79.3492 212° Southwest  Level FlightAware Approximate
10:25AM 33.7317 -79.3846 212° Southwest  Level FlightAware Approximate
10:26AM 33.6850 -79.4203 212° Southwest  Level FlightAware Approximate
10:27AM 33.6383 -79.4560 212° Southwest  Level FlightAware Approximate
10:28AM 33.5916 -79.4916 212° Southwest  Level FlightAware Approximate
10:29AM 33.5449 -79.5272 212° Southwest  Level FlightAware Approximate
10:30AM 33.4982 -79.5628 212° Southwest  Level FlightAware Approximate
10:31AM 33.4515 -79.5983 212° Southwest  Level FlightAware Approximate
10:32AM 33.4048 -79.6338 212° Southwest  Level FlightAware Approximate
10:33AM 33.3581 -79.6694 213° Southwest  Level FlightAware Approximate
10:34AM 33.3116 -79.7053 213° Southwest  Level FlightAware Approximate
10:35AM 33.2651 -79.7411 213° Southwest  Level FlightAware Approximate
10:36AM 33.2186 -79.7769 213° Southwest  Level FlightAware Approximate
10:37AM 33.1721 -79.8126 213° Southwest  Level FlightAware Approximate
10:38AM 33.1255 -79.8483 213° Southwest  Level FlightAware Approximate
10:39AM 33.0789 -79.8840 213° Southwest  Level FlightAware Approximate
10:40AM 33.0324 -79.9196 213° Southwest  Level FlightAware Approximate
10:41AM 32.9858 -79.9552 213° Southwest  Level FlightAware Approximate
10:42AM 32.9392 -79.9908 213° Southwest  Level FlightAware Approximate
10:43AM 32.8926 -80.0263 213° Southwest  Level FlightAware Approximate
10:44AM 32.8459 -80.0615 212° Southwest  Level FlightAware Approximate
10:45AM 32.7991 -80.0966 212° Southwest  Level FlightAware Approximate
10:46AM 32.7523 -80.1317 212° Southwest  Level FlightAware Approximate
10:47AM 32.7097 -80.1736 220° Southwest  Level FlightAware Approximate
10:48AM 32.6628 -80.2081 209° Southwest  Level FlightAware Approximate
10:49AM 32.6152 -80.2415 211° Southwest  Level FlightAware Approximate
10:50AM 32.5678 -80.2754 211° Southwest  Level FlightAware Approximate
10:51AM 32.5210 -80.3103 215° Southwest  Level FlightAware Approximate
10:52AM 32.4756 -80.3479 215° Southwest  Level FlightAware Approximate
10:53AM 32.4303 -80.3854 215° Southwest  Level FlightAware Approximate
10:54AM 32.3850 -80.4230 215° Southwest  Level FlightAware Approximate
10:55AM 32.3396 -80.4605 215° Southwest  Level FlightAware Approximate
10:56AM 32.2942 -80.4979 215° Southwest  Level FlightAware Approximate
10:57AM 32.2489 -80.5353 215° Southwest  Level FlightAware Approximate
10:58AM 32.2035 -80.5727 215° Southwest  Level FlightAware Approximate
10:59AM 32.1581 -80.6100 215° Southwest  Level FlightAware Approximate
11:00AM 32.1098 -80.6364 215° Southwest  Level FlightAware Approximate
11:01AM 32.0647 -80.6741 215° Southwest  Level FlightAware Approximate
11:02AM 32.0195 -80.7118 215° Southwest  Level FlightAware Approximate
11:03AM 31.9743 -80.7494 215° Southwest  Level FlightAware Approximate
11:04AM 31.9291 -80.7870 215° Southwest  Level FlightAware Approximate
11:05AM 31.8839 -80.8246 215° Southwest  Level FlightAware Approximate
11:06AM 31.8388 -80.8622 215° Southwest  Level FlightAware Approximate
11:07AM 31.7877 -80.8866 200° South  Level FlightAware Approximate
11:08AM 31.7358 -80.9092 200° South  Level FlightAware Approximate
11:09AM 31.6839 -80.9318 200° South  Level FlightAware Approximate
11:10AM 31.6320 -80.9544 200° South  Level FlightAware Approximate
11:11AM 31.5802 -80.9769 200° South  Level FlightAware Approximate
11:12AM 31.5283 -80.9994 200° South  Level FlightAware Approximate
11:13AM 31.4764 -81.0219 200° South  Level FlightAware Approximate
11:14AM 31.4243 -81.0436 199° South  Level FlightAware Approximate
11:15AM 31.3719 -81.0646 199° South  Level FlightAware Approximate
11:16AM 31.3196 -81.0856 199° South  Level FlightAware Approximate
11:16AM 31.6653 -80.9497 200° South 200 230 8,100  Level Jacksonville Center
11:17AM 31.2672 -81.1065 199° South  Level FlightAware Approximate
11:17AM 31.6217 -80.9675 199° South 200 230 8,100  Level Jacksonville Center
11:18AM 31.2149 -81.1274 199° South  Level FlightAware Approximate
11:18AM 31.5678 -80.9906 200° South 192 221 8,100  Level Jacksonville Center
11:19AM 31.1628 -81.1493 200° South  Level FlightAware Approximate
11:19AM 31.5178 -81.0111 199° South 198 228 8,100  Level Jacksonville Center
11:20AM 31.1109 -81.1716 200° South  Level FlightAware Approximate
11:20AM 31.4619 -81.0342 199° South 198 228 8,100  Level Jacksonville Center
11:21AM 31.4100 -81.0572 201° Southwest 198 228 8,100  Level Jacksonville Center
11:22AM 31.3581 -81.0800 201° Southwest 198 228 8,100  Level Jacksonville Center
11:23AM 31.3125 -81.1003 201° Southwest 198 228 8,100  Level Jacksonville Center
11:24AM 31.2544 -81.1233 199° South 198 228 8,100  Level Jacksonville Center
11:25AM 31.2025 -81.1461 201° Southwest 203 234 8,100  Level Jacksonville Center
11:26AM 31.1506 -81.1667 199° South 203 234 8,100  Level Jacksonville Center
11:26AM 31.1256 -81.1767 199° South 200 230 8,100  Level Jacksonville Center
11:27AM 31.1050 -81.1894 208° Southwest 208 239 8,100  Level Jacksonville Center
11:27AM 31.0944 -81.1919 191° South 201 231 8,100  Level Jacksonville Center
11:28AM 31.0467 -81.2097 198° South 201 231 8,100  Level Jacksonville Center
11:28AM 31.0425 -81.2122 207° Southwest 213 245 8,100  Level Jacksonville Center
11:29AM 30.9928 -81.2372 203° Southwest 208 239 8,100  Level Jacksonville Center
11:29AM 30.9906 -81.2350 139° Southeast 199 229 8,100  Level Jacksonville Center
11:30AM 30.9389 -81.2578 201° Southwest 208 239 8,100  Level Jacksonville Center
11:30AM 30.9347 -81.2603 207° Southwest 199 229 8,100  Level Jacksonville Center
11:31AM 30.8889 -81.2803 201° Southwest 208 239 8,100  Level Jacksonville Center
11:31AM 30.8806 -81.2828 194° South 197 227 8,100  Level Jacksonville Center
11:32AM 30.8369 -81.3031 202° Southwest 208 239 8,100  Level Jacksonville Center
11:32AM 30.8308 -81.3056 199° South 194 223 8,100  Level Jacksonville Center
11:33AM 30.7789 -81.3258 199° South 194 223 8,100  Level Jacksonville Center
11:34AM 30.7247 -81.3483 200° South 195 224 8,100  Level Jacksonville Center
11:35AM 30.6875 -81.3731 210° Southwest 208 239 8,100  Level Jacksonville Center
11:35AM 30.6792 -81.3781 207° Southwest 195 224 8,100  Level Jacksonville Center
11:36AM 30.6378 -81.4006 205° Southwest 203 234 8,100  Level Jacksonville Center
11:36AM 30.6294 -81.4056 207° Southwest 195 224 8,100  Level Jacksonville Center
11:37AM 30.5756 -81.4328 204° Southwest 198 228 8,100  Level Jacksonville Center
11:38AM 30.5342 -81.4575 207° Southwest 197 227 8,100  Level Jacksonville Center
11:39AM 30.4758 -81.4850 202° Southwest 198 228 8,100  Level Jacksonville Center
11:40AM 30.4325 -81.5169 212° Southwest 191 220 8,100  Level Jacksonville Center
11:41AM 30.3825 -81.5489 209° Southwest 198 228 8,100  Level Jacksonville Center
11:42AM 30.3328 -81.5761 205° Southwest 196 226 8,100  Level Jacksonville Center
11:43AM 30.2850 -81.6056 208° Southwest 197 227 8,100  Level Jacksonville Center
11:44AM 30.2311 -81.6353 205° Southwest 197 227 8,100  Level Jacksonville Center
11:45AM 30.1792 -81.6672 208° Southwest 199 229 8,100  Level Jacksonville Center
11:46AM 30.1294 -81.6917 203° Southwest 197 227 8,200  Climbing Jacksonville Center
11:47AM 30.0733 -81.7211 204° Southwest 198 228 8,100 360 Descending Jacksonville Center
11:48AM 30.0297 -81.7433 204° Southwest 169 194 9,000 420 Climbing Jacksonville Center
11:49AM 29.9839 -81.7728 209° Southwest 171 197 9,100  Climbing Jacksonville Center
11:50AM 29.9342 -81.8044 209° Southwest 194 223 9,100  Level Jacksonville Center
11:52AM 29.8758 -81.8361 205° Southwest 195 224 9,100  Level Jacksonville Center
11:53AM 29.8197 -81.8681 206° Southwest 198 228 9,100  Level Jacksonville Center
11:53AM 29.7783 -81.8900 205° Southwest 197 227 9,100  Level Jacksonville Center
11:54AM 29.7283 -81.9192 207° Southwest 198 228 9,100  Level Jacksonville Center
11:55AM 29.6911 -81.9578 222° Southwest 178 205 9,100  Level Jacksonville Center
11:57AM 29.6581 -82.0058 232° Southwest 184 212 9,100 -60 Level Jacksonville Center
11:58AM 29.6058 -82.0303 202° Southwest 213 245 9,000  Descending Jacksonville Center
11:59AM 29.5686 -82.0664 220° Southwest 178 205 9,100  Climbing Jacksonville Center
12:00PM 29.5333 -82.1119 228° Southwest 184 212 9,100  Level Jacksonville Center
12:01PM 29.4919 -82.1506 219° Southwest 198 228 9,100  Level Jacksonville Center
12:02PM 29.4400 -82.1844 210° Southwest 193 222 9,100  Level Jacksonville Center
12:04PM 29.3483 -82.2444 210° Southwest 191 220 9,100  Level Jacksonville Center
12:05PM 29.2942 -82.2378 174° South 234 269 9,100  Level Jacksonville Center
12:06PM 29.2272 -82.2217 168° South 217 250 9,100  Level Jacksonville Center
12:07PM 29.1728 -82.2147 174° South 216 249 9,100  Level Jacksonville Center
12:08PM 29.1122 -82.2058 173° South 215 247 9,100  Level Jacksonville Center
12:09PM 29.0539 -82.1942 170° South 215 247 9,100 -60 Level Jacksonville Center
12:10PM 28.9953 -82.1853 172° South 213 245 9,000  Descending Jacksonville Center
12:12PM 28.8742 -82.1647 172° South 210 242 9,100  Climbing Jacksonville Center
12:13PM 28.8156 -82.1556 172° South 212 244 9,100  Level Jacksonville Center
12:15PM 28.6833 -82.1333 172° South 211 243 9,100  Level Tampa TRACON
12:16PM 28.6167 -82.1167 168° South 214 246 9,100  Level Tampa TRACON
12:17PM 28.5500 -82.1167 180° South 214 246 9,100  Level Tampa TRACON
12:18PM 28.5000 -82.1000 164° South 210 242 9,100  Level Tampa TRACON
12:19PM 28.4500 -82.0833 164° South 210 242 9,200  Climbing Tampa TRACON
12:20PM 28.3833 -82.0833 180° South 211 243 9,100 -60 Descending Tampa TRACON
12:21PM 28.3333 -82.0667 164° South 209 241 9,100  Level Tampa TRACON
12:22PM 28.2667 -82.0667 180° South 208 239 9,200  Climbing Tampa TRACON
12:23PM 28.2000 -82.0500 168° South 207 238 9,100  Descending Tampa TRACON
12:25PM 28.0864 -82.0314 172° South 195 224 9,200  Climbing Miami Center
12:26PM 28.0283 -82.0217 172° South 201 231 9,200 -60 Level Miami Center
12:27PM 27.9725 -82.0097 169° South 201 231 9,100 -60 Descending Miami Center
12:28PM 27.9169 -81.9861 159° South 206 237 9,100  Level Miami Center
12:29PM 27.8553 -81.9644 163° South 206 237 9,100  Level Miami Center
12:30PM 27.8086 -81.9250 143° Southeast 206 237 9,100  Level Miami Center
12:31PM 27.7553 -81.8992 157° South 212 244 9,200  Climbing Miami Center
12:32PM 27.6994 -81.8803 163° South 212 244 9,100  Descending Miami Center
12:33PM 27.6481 -81.8592 160° South 212 244 9,200  Climbing Miami Center
12:34PM 27.5864 -81.8378 163° South 206 237 9,100 -60 Descending Miami Center
12:35PM 27.5306 -81.8189 163° South 206 237 9,100 -180 Level Miami Center
12:36PM 27.4708 -81.7953 161° South 206 237 8,800 -360 Descending Miami Center
12:37PM 27.4111 -81.7764 164° South 217 250 8,400 -480 Descending Miami Center
12:38PM 27.3511 -81.7528 161° South 222 255 7,900 -420 Descending Miami Center
12:39PM 27.2914 -81.7339 164° South 222 255 7,600 -420 Descending Miami Center
12:40PM 27.2358 -81.7128 161° South 222 255 7,100 -300 Descending Miami Center
12:41PM 27.1800 -81.6919 162° South 217 250 7,100  Level Miami Center
12:42PM 27.1264 -81.6733 163° South 212 244 7,100  Level Miami Center
12:43PM 27.0769 -81.6525 159° South 201 231 7,100  Level Miami Center
12:44PM 27.0231 -81.6386 167° South 201 231 7,100  Level Miami Center
12:45PM 26.9728 -81.6483 190° South 194 223 7,100  Level Miami Center
12:46PM 26.9211 -81.6344 167° South 194 223 7,100 -240 Level Miami Center
12:47PM 26.8714 -81.6186 164° South 199 229 6,700 -540 Descending Miami Center
12:48PM 26.8136 -81.6000 164° South 204 235 6,100 -600 Descending Miami Center
12:49PM 26.7578 -81.5836 165° South 204 235 5,600 -540 Descending Miami Center
12:50PM 26.7019 -81.5650 163° South 204 235 5,100 -300 Descending Miami Center
12:51PM 26.6503 -81.5492 165° South 204 235 5,100  Level Miami Center
12:53PM 26.6254 -81.6053 244° Southwest  Level FlightAware Approximate
01:00PM 26.2808 -81.7296 188° South  Level Estimated
01:01PM 26.2316 -81.7472 190° South  Level Estimated
01:02PM 26.1810 -81.7593 192° South  Level FlightAware Approximate
01:03PM 26.1524 -81.7756 192° South  Level Estimated
01:04PM 26.1524 -81.7756 190° South  Level Estimated
01:05PM 26.1524 -81.7756 107° East  Level Estimated
01:06PM 26.1524 -81.7756 190° South  Level Estimated
01:07PM 26.1524 -81.7756 107° East  Level Estimated
01:08PM 26.1524 -81.7756 190° South  Level Estimated
01:09PM 26.1524 -81.7756 107° East  Level Estimated
01:10PM 26.1524 -81.7756 190° South  Level Estimated
01:11PM 26.1524 -81.7756 107° East  Level Estimated
01:12PM 26.1524 -81.7756 190° South  Level Estimated
01:13PM 26.1524 -81.7756 107° East  Level Estimated
01:14PM 26.1524 -81.7756 190° South  Level Estimated
01:15PM 26.1524 -81.7756 107° East  Level Estimated